Weather History for Walhalla, ND

Change the Weather History Date:

Thursday, December 6, 2012

  Actual Average (KGAF) Record (KGAF)
Temperature  
Mean Temperature 24 °F -  
Max Temperature 37 °F 22 °F 40 °F (1974)
Min Temperature 10 °F 4 °F -27 °F (1972)
Degree Days  
Heating Degree Days 40    
Moisture  
Dew Point 19 °F    
Average Humidity 81    
Maximum Humidity 100    
Minimum Humidity 64    
Precipitation  
Precipitation 0.00 in - - ()
Sea Level Pressure  
Sea Level Pressure 29.83 in    
Wind  
Wind Speed 16 mph (West)    
Max Wind Speed 26 mph    
Max Gust Speed 38 mph    
Visibility 10 miles    
Events Snow    
Averages and records for this station are not official NWS values.
T = Trace of Precipitation, MM = Missing Value Source: NWS Daily Summary

Daily Weather History Graph

Daily Weather History Graph

Search for Another Location

Airport:

Trip Planner

Search our weather history database for the weather conditions in past years. The results will help you decide how hot, cold, wet, or windy it might be!

Date:

Astronomy

Dec. 06, 2012 Rise Set
Actual Time 8:10 AM CST 4:34 PM CST
Civil Twilight 7:33 AM CST 5:11 PM CST
Nautical Twilight 6:53 AM CST 5:51 PM CST
Astronomical Twilight 6:15 AM CST 6:30 PM CST
Moon No Moon Rise 12:33 PM CST (12/6)
Length of Visible Light 9h 37m
Length of Day
8h 24m
Waning Gibbous, 49% of the Moon is Illuminated
Dec 6
Waning Gibbous
Dec 13
New
Dec 19
First Quarter
Dec 28
Full
Jan 4
Last Quarter

Hourly Weather History & Observations

Time (CST) Temp. Windchill Dew Point Humidity Pressure Visibility Wind Dir Wind Speed Gust Speed Precip Events Conditions
12:15 AM 37.4 °F 26.4 °F 32.0 °F 81% 29.51 in 10.0 mi WSW 23.0 mph 29.9 mph N/A   Clear
12:35 AM 35.6 °F 25.9 °F 32.0 °F 87% 29.54 in 10.0 mi West 16.1 mph 29.9 mph N/A   Partly Cloudy
12:55 AM 35.6 °F 25.5 °F 32.0 °F 87% 29.55 in 10.0 mi West 17.3 mph 24.2 mph N/A   Mostly Cloudy
1:15 AM 35.6 °F 24.8 °F 32.0 °F 87% 29.56 in 10.0 mi West 19.6 mph 27.6 mph N/A   Overcast
1:35 AM 35.6 °F 24.8 °F 32.0 °F 87% 29.56 in 10.0 mi West 19.6 mph 31.1 mph N/A   Overcast
1:55 AM 35.6 °F 24.0 °F 32.0 °F 87% 29.57 in 10.0 mi West 23.0 mph 29.9 mph N/A   Overcast
2:15 AM 32.0 °F 18.4 °F 30.2 °F 93% 29.58 in 10.0 mi West 26.5 mph 38.0 mph N/A   Mostly Cloudy
2:35 AM 32.0 °F 19.5 °F 28.4 °F 87% 29.59 in 10.0 mi West 21.9 mph 35.7 mph N/A   Overcast
2:55 AM 32.0 °F 19.5 °F 28.4 °F 87% 29.61 in 10.0 mi West 21.9 mph 35.7 mph N/A   Overcast
3:15 AM 32.0 °F 18.6 °F 28.4 °F 87% 29.63 in 10.0 mi WNW 25.3 mph 35.7 mph N/A   Overcast
3:35 AM 30.2 °F 18.1 °F 28.4 °F 93% 29.66 in 10.0 mi West 18.4 mph 31.1 mph N/A   Overcast
3:55 AM 30.2 °F 17.4 °F 30.2 °F 100% 29.67 in 10.0 mi NW 20.7 mph 29.9 mph N/A   Overcast
4:15 AM 28.4 °F 18.5 °F 24.8 °F 86% 29.69 in 10.0 mi NW 11.5 mph 23.0 mph N/A   Overcast
4:35 AM 28.4 °F 17.5 °F 24.8 °F 86% 29.70 in 10.0 mi NW 13.8 mph 21.9 mph N/A   Overcast
4:55 AM 28.4 °F 18.5 °F 24.8 °F 86% 29.72 in 10.0 mi WNW 11.5 mph 17.3 mph N/A   Overcast
5:15 AM 28.4 °F 18.5 °F 24.8 °F 86% 29.73 in 10.0 mi WNW 11.5 mph 18.4 mph N/A   Overcast
5:35 AM 28.4 °F 17.0 °F 24.8 °F 86% 29.75 in 10.0 mi WNW 15.0 mph 23.0 mph N/A   Overcast
5:55 AM 26.6 °F 14.7 °F 23.0 °F 86% 29.77 in 10.0 mi WNW 15.0 mph 24.2 mph N/A   Overcast
7:35 AM 23.0 °F 11.1 °F 19.4 °F 86% 29.82 in 10.0 mi West 12.7 mph 19.6 mph N/A   Overcast
7:55 AM 23.0 °F 10.1 °F 19.4 °F 86% 29.81 in 10.0 mi West 15.0 mph 19.6 mph N/A   Overcast
8:15 AM 23.0 °F 10.1 °F 19.4 °F 86% 29.83 in 10.0 mi West 15.0 mph 19.6 mph N/A   Overcast
8:35 AM 21.2 °F 10.1 °F 19.4 °F 93% 29.84 in 10.0 mi West 10.4 mph 21.9 mph N/A   Overcast
9:15 AM 21.2 °F 8.9 °F 17.6 °F 86% 29.85 in 10.0 mi West 12.7 mph 17.3 mph N/A   Overcast
9:35 AM 19.4 °F 7.9 °F 15.8 °F 86% 29.86 in 10.0 mi WNW 10.4 mph 19.6 mph N/A Snow Light Snow
9:55 AM 19.4 °F 8.6 °F 15.8 °F 86% 29.86 in 10.0 mi West 9.2 mph 18.4 mph N/A   Overcast
10:15 AM 21.2 °F 8.3 °F 15.8 °F 80% 29.87 in 10.0 mi WNW 13.8 mph 18.4 mph N/A   Overcast
10:35 AM 21.2 °F 9.5 °F 15.8 °F 80% 29.88 in 10.0 mi West 11.5 mph 19.6 mph N/A   Mostly Cloudy
10:55 AM 21.2 °F 7.3 °F 14.0 °F 74% 29.88 in 10.0 mi WNW 16.1 mph 21.9 mph N/A   Mostly Cloudy
11:15 AM 21.2 °F 7.3 °F 14.0 °F 74% 29.89 in 10.0 mi West 16.1 mph 24.2 mph N/A   Partly Cloudy
11:35 AM 21.2 °F 8.9 °F 14.0 °F 74% 29.89 in 10.0 mi WNW 12.7 mph 20.7 mph N/A   Clear
11:55 AM 23.0 °F 12.4 °F 14.0 °F 68% 29.88 in 10.0 mi West 10.4 mph 18.4 mph N/A   Clear
12:15 PM 23.0 °F 11.7 °F 14.0 °F 68% 29.88 in 10.0 mi West 11.5 mph 16.1 mph N/A   Clear
12:35 PM 24.8 °F 13.4 °F 14.0 °F 64% 29.87 in 10.0 mi West 12.7 mph 18.4 mph N/A   Clear
12:55 PM 24.8 °F 12.4 °F 14.0 °F 64% 29.88 in 10.0 mi West 15.0 mph 19.6 mph N/A   Clear
1:15 PM 23.0 °F 10.6 °F 14.0 °F 68% 29.88 in 10.0 mi WNW 13.8 mph 20.7 mph N/A   Clear
1:35 PM 23.0 °F 10.6 °F 14.0 °F 68% 29.89 in 10.0 mi WNW 13.8 mph 21.9 mph N/A   Clear
1:55 PM 23.0 °F 10.1 °F 14.0 °F 68% 29.89 in 10.0 mi WNW 15.0 mph 23.0 mph N/A   Clear
2:15 PM 24.8 °F 15.3 °F 15.8 °F 69% 29.89 in 10.0 mi West 9.2 mph 19.6 mph N/A   Mostly Cloudy
2:35 PM 23.0 °F 8.7 °F 15.8 °F 74% 29.89 in 10.0 mi West 18.4 mph 24.2 mph N/A   Overcast
2:55 PM 23.0 °F 11.1 °F 17.6 °F 80% 29.89 in 10.0 mi WNW 12.7 mph 23.0 mph N/A   Overcast
3:15 PM 24.8 °F 12.9 °F 17.6 °F 74% 29.89 in 10.0 mi WNW 13.8 mph 23.0 mph N/A   Overcast
3:35 PM 24.8 °F 12.9 °F 19.4 °F 80% 29.89 in 10.0 mi West 13.8 mph 19.6 mph N/A   Overcast
3:55 PM 24.8 °F 14.6 °F 19.4 °F 80% 29.89 in 10.0 mi WSW 10.4 mph 16.1 mph N/A   Scattered Clouds
4:15 PM 24.8 °F 12.9 °F 19.4 °F 80% 29.89 in 10.0 mi West 13.8 mph 17.3 mph N/A   Clear
4:35 PM 24.8 °F 14.6 °F 21.2 °F 86% 29.89 in 10.0 mi West 10.4 mph 18.4 mph N/A   Clear
4:55 PM 24.8 °F 17.9 °F 19.4 °F 80% 29.90 in 10.0 mi West 5.8 mph - N/A   Scattered Clouds
5:15 PM 23.0 °F 18.4 °F 19.4 °F 86% 29.90 in 10.0 mi WSW 3.5 mph - N/A   Overcast
5:35 PM 24.8 °F 16.1 °F 21.2 °F 86% 29.91 in 10.0 mi West 8.1 mph - N/A   Overcast
5:55 PM 24.8 °F 16.1 °F 21.2 °F 86% 29.91 in 10.0 mi West 8.1 mph - N/A   Overcast
6:15 PM 24.8 °F 12.9 °F 19.4 °F 80% 29.91 in 10.0 mi West 13.8 mph 19.6 mph N/A   Scattered Clouds
6:35 PM 24.8 °F 14.0 °F 19.4 °F 80% 29.92 in 10.0 mi West 11.5 mph 17.3 mph N/A   Clear
6:55 PM 23.0 °F 13.1 °F 19.4 °F 86% 29.92 in 10.0 mi West 9.2 mph - N/A   Partly Cloudy
7:15 PM 23.0 °F 12.4 °F 19.4 °F 86% 29.92 in 10.0 mi West 10.4 mph - N/A   Partly Cloudy
7:35 PM 23.0 °F 11.7 °F 17.6 °F 80% 29.92 in 10.0 mi West 11.5 mph 18.4 mph N/A   Clear
7:55 PM 21.2 °F 9.5 °F 15.8 °F 80% 29.93 in 10.0 mi West 11.5 mph 16.1 mph N/A   Clear
8:35 PM 19.4 °F 11.5 °F 14.0 °F 80% 29.95 in 10.0 mi West 5.8 mph - N/A   Clear
8:55 PM 17.6 °F 5.0 °F 10.4 °F 73% 29.95 in 10.0 mi WNW 11.5 mph - N/A   Clear
9:15 PM 17.6 °F 7.3 °F 10.4 °F 73% 29.97 in 10.0 mi WNW 8.1 mph - N/A   Clear
9:35 PM 17.6 °F 6.4 °F 10.4 °F 73% 29.97 in 10.0 mi WNW 9.2 mph - N/A   Partly Cloudy
9:55 PM 15.8 °F 3.4 °F 8.6 °F 73% 29.97 in 10.0 mi West 10.4 mph 19.6 mph N/A   Mostly Cloudy
10:15 PM 15.8 °F 6.1 °F 8.6 °F 73% 29.98 in 10.0 mi West 6.9 mph - N/A   Mostly Cloudy
10:35 PM 14.0 °F 2.9 °F 8.6 °F 79% 29.99 in 10.0 mi West 8.1 mph - N/A   Partly Cloudy
10:55 PM 14.0 °F 3.9 °F 8.6 °F 79% 30.00 in 10.0 mi West 6.9 mph - N/A   Partly Cloudy
11:15 PM 14.0 °F 3.9 °F 8.6 °F 79% 30.00 in 10.0 mi West 6.9 mph - N/A   Clear
11:35 PM 12.2 °F 0.7 °F 6.8 °F 79% 30.01 in 10.0 mi West 8.1 mph - N/A   Clear
11:55 PM 10.4 °F -0.4 °F 6.8 °F 85% 30.01 in 10.0 mi West 6.9 mph - N/A   Clear